Data for 11/13/2015

Time Sea-Level Adjusted Pressure Absolute Pressure Temperature Relative Humidity Dew Point   
(mb) (inHg) (mb) (inHg) (C) (F) (%) (C) (F)
00:05 1021 30.15 850 25.1 -3.2 26.2 56 -10.8 12.5
00:10 1021 30.15 850 25.1 -2.9 26.7 55 -10.8 12.6
00:15 1021 30.15 850 25.1 -2.9 26.8 55 -10.6 12.9
00:20 1021 30.15 850 25.1 -3 26.5 57 -10.5 13.1
00:25 1021 30.15 850 25.1 -3.4 25.8 59 -10.3 13.5
00:30 1021 30.15 850 25.1 -4.1 24.6 64 -10 14
00:35 1020 30.12 850 25.1 -3.8 25.1 60 -10.6 13
00:40 1020 30.12 850 25.1 -3.6 25.5 61 -10 14
00:45 1020 30.12 850 25.1 -3.8 25.1 62 -10.1 13.8
00:50 1021 30.15 850 25.1 -4 24.8 64 -9.9 14.2
00:55 1021 30.15 850 25.1 -4 24.8 60 -10.6 12.9
01:00 1020 30.12 850 25.1 -3.2 26.3 57 -10.5 13.1
01:05 1020 30.12 850 25.1 -2.8 27 57 -10.3 13.5
01:10 1020 30.12 850 25.1 -2.8 27 55 -10.6 12.9
01:15 1020 30.12 850 25.1 -2.6 27.3 55 -10.4 13.3
01:20 1020 30.12 850 25.1 -2.8 27 55 -10.7 12.8
01:25 1020 30.12 850 25.1 -3.1 26.4 57 -10.5 13.2
01:30 1021 30.15 850 25.1 -3.5 25.7 58 -10.6 13
01:35 1020 30.12 850 25.1 -3.2 26.2 55 -10.9 12.3
01:40 1021 30.15 850 25.1 -2.9 26.8 54 -10.9 12.4
01:45 1021 30.15 850 25.1 -2.9 26.8 57 -10.3 13.5
01:50 1021 30.15 850 25.1 -2.6 27.4 53 -10.8 12.5
01:55 1020 30.12 850 25.1 -1.9 28.5 52 -10.4 13.2
02:00 1020 30.12 850 25.1 -1.4 29.5 49 -10.9 12.5
02:05 1020 30.12 850 25.1 -1.2 29.9 52 -9.9 14.2
02:10 1020 30.12 850 25.1 -1.8 28.7 58 -9 15.8
02:15 1020 30.12 850 25.1 -3 26.7 61 -9.4 15.1
02:20 1020 30.12 850 25.1 -3 26.6 60 -9.6 14.6
02:25 1020 30.12 850 25.1 -2.8 26.9 61 -9.3 15.2
02:30 1020 30.12 850 25.1 -2.8 27 58 -10 14.1
02:35 1020 30.12 849 25.07 -2.1 28.2 56 -9.7 14.5
02:40 1020 30.12 849 25.07 -2.2 28.1 54 -10.3 13.5
02:45 1020 30.12 849 25.07 -1.8 28.8 57 -9.2 15.5
02:50 1020 30.12 849 25.07 -2 28.4 56 -9.7 14.6
02:55 1020 30.12 849 25.07 -1.6 29.2 54 -9.7 14.5
03:00 1020 30.12 849 25.07 -1.2 29.9 52 -9.7 14.5
03:05 1020 30.12 849 25.07 -0.5 31.1 52 -9.1 15.5
03:10 1020 30.12 849 25.07 -0.2 31.6 51 -9.3 15.3
03:15 1020 30.12 849 25.07 -0.5 31.1 52 -9.1 15.5
03:20 1019 30.09 849 25.07 -0.4 31.3 47 -10.4 13.3
03:25 1019 30.09 849 25.07 0.3 32.6 47 -9.7 14.5
03:30 1019 30.09 849 25.07 0.4 32.7 44 -10.6 12.9
03:35 1019 30.09 849 25.07 0.6 33.1 41 -11.2 11.9
03:40 1020 30.12 849 25.07 0.8 33.4 43 -10.5 13
03:45 1020 30.12 849 25.07 0.7 33.2 52 -8 17.6
03:50 1019 30.09 849 25.07 -0.2 31.7 52 -8.8 16.1
03:55 1019 30.09 849 25.07 -0.3 31.5 52 -8.9 15.9
04:00 1019 30.09 849 25.07 0.2 32.3 47 -9.8 14.4
04:05 1020 30.12 849 25.07 0.7 33.2 46 -9.8 14.4
04:10 1020 30.12 849 25.07 1.1 34 44 -9.9 14.2
04:15 1020 30.12 849 25.07 1.4 34.5 44 -9.7 14.6
04:20 1020 30.12 849 25.07 1.5 34.6 44 -9.5 14.8
04:25 1020 30.12 849 25.07 1.5 34.6 42 -10 14.1
04:30 1020 30.12 849 25.07 1.7 35 42 -9.9 14.1
04:35 1020 30.12 849 25.07 1.7 35 43 -9.7 14.6
04:40 1020 30.12 849 25.07 1.6 34.9 44 -9.5 14.9
04:45 1019 30.09 849 25.07 1.5 34.7 43 -9.8 14.3
04:50 1019 30.09 849 25.07 1.3 34.3 43 -10 14.1
04:55 1019 30.09 849 25.07 1.1 34.1 44 -9.7 14.5
05:00 1019 30.09 848 25.04 1.1 34 45 -9.5 14.9
05:05 1019 30.09 848 25.04 1.1 33.9 46 -9.2 15.5
05:10 1019 30.09 848 25.04 0.7 33.3 51 -8.3 17
05:15 1019 30.09 848 25.04 0.1 32.2 52 -8.6 16.5
05:20 1019 30.09 848 25.04 -0.1 31.8 50 -9.2 15.4
05:25 1019 30.09 848 25.04 0.5 32.9 50 -8.9 16.1
05:30 1019 30.09 848 25.04 1 33.8 47 -9.2 15.5
05:35 1019 30.09 848 25.04 1.4 34.5 47 -8.6 16.5
05:40 1019 30.09 848 25.04 0.9 33.6 50 -8.3 17
05:45 1019 30.09 848 25.04 0.5 32.9 51 -8.4 16.9
05:50 1019 30.09 848 25.04 0.2 32.3 51 -8.8 16.2
05:55 1019 30.09 848 25.04 0.1 32.3 54 -8.2 17.3
06:00 1019 30.09 848 25.04 0.2 32.4 54 -8 17.6
06:05 1019 30.09 848 25.04 0.2 32.3 56 -7.5 18.4
06:10 1019 30.09 849 25.07 0.1 32.2 53 -8.4 17
06:15 1019 30.09 849 25.07 0.6 33.1 49 -8.9 15.9
06:20 1019 30.09 848 25.04 1.1 34.1 52 -7.7 18.2
06:25 1019 30.09 848 25.04 0.8 33.5 52 -7.9 17.8
06:30 1019 30.09 848 25.04 0.9 33.7 51 -8 17.6
06:35 1019 30.09 848 25.04 1.3 34.3 50 -8 17.6
06:40 1019 30.09 848 25.04 1.8 35.3 52 -7.1 19.3
06:45 1019 30.09 848 25.04 1.4 34.6 51 -7.6 18.3
06:50 1019 30.09 848 25.04 1.4 34.5 52 -7.3 18.9
06:55 1019 30.09 848 25.04 1 33.8 54 -7.2 19
07:00 1019 30.09 848 25.04 0.9 33.6 54 -7.3 18.9
07:05 1019 30.09 848 25.04 0.9 33.7 55 -7.2 19
07:10 1019 30.09 848 25.04 1 33.9 55 -7 19.5
07:15 1019 30.09 848 25.04 1 33.7 55 -7 19.3
07:20 1019 30.09 848 25.04 0.7 33.3 59 -6.4 20.5
07:25 1019 30.09 848 25.04 0.4 32.6 60 -6.5 20.2
07:30 1019 30.09 848 25.04 0.6 33 59 -6.5 20.2
07:35 1019 30.09 848 25.04 0.8 33.4 58 -6.5 20.3
07:40 1019 30.09 848 25.04 1 33.8 58 -6.5 20.4
07:45 1019 30.09 848 25.04 1.3 34.3 57 -6.4 20.4
07:50 1019 30.09 848 25.04 1.4 34.6 57 -6.3 20.7
07:55 1019 30.09 848 25.04 1.5 34.7 57 -6.2 20.9
08:00 1019 30.09 848 25.04 1.6 34.8 57 -6 21.1
08:05 1019 30.09 848 25.04 1.7 35 57 -5.9 21.4
08:10 1019 30.09 848 25.04 1.7 35.1 57 -5.8 21.5
08:15 1019 30.09 848 25.04 1.8 35.2 57 -5.9 21.4
08:20 1019 30.09 848 25.04 1.9 35.3 57 -5.8 21.5
08:25 1019 30.09 848 25.04 1.9 35.5 56 -6 21.3
08:30 1019 30.09 848 25.04 2.1 35.9 55 -6 21.3
08:35 1019 30.09 848 25.04 2.3 36.2 54 -6 21.3
08:40 1019 30.09 848 25.04 2.4 36.2 55 -5.8 21.6
08:45 1019 30.09 848 25.04 2.4 36.3 56 -5.4 22.2
08:50 1019 30.09 849 25.07 2.2 35.9 57 -5.6 21.9
08:55 1020 30.12 849 25.07 2.3 36.1 56 -5.7 21.8
09:00 1020 30.12 849 25.07 2.5 36.5 55 -5.7 21.8
09:05 1019 30.09 849 25.07 2.5 36.5 55 -5.7 21.8
09:10 1020 30.12 849 25.07 2.7 36.8 55 -5.6 22
09:15 1020 30.12 849 25.07 2.7 36.9 54 -5.6 21.9
09:20 1020 30.12 849 25.07 2.8 37.1 54 -5.5 22.2
09:25 1020 30.12 849 25.07 2.8 37 54 -5.5 22.1
09:30 1020 30.12 849 25.07 3 37.4 54 -5.4 22.3
09:35 1020 30.12 849 25.07 3.1 37.7 54 -5.3 22.5
09:40 1020 30.12 849 25.07 3.3 37.9 54 -5.1 22.8
09:45 1020 30.12 849 25.07 3.2 37.7 55 -5.1 22.9
09:50 1020 30.12 849 25.07 3.2 37.8 54 -5.1 22.8
09:55 1020 30.12 849 25.07 3.4 38.2 53 -5.1 22.7
10:00 1020 30.12 849 25.07 3.8 38.8 52 -5.1 22.8
10:05 1020 30.12 849 25.07 4 39.2 52 -5.1 22.9
10:10 1020 30.12 849 25.07 4.2 39.6 51 -5 23
10:15 1020 30.12 849 25.07 4.4 39.9 51 -4.9 23.3
10:20 1020 30.12 849 25.07 4.4 39.9 52 -4.5 23.8
10:25 1019 30.09 849 25.07 4.3 39.8 52 -4.6 23.8
10:30 1019 30.09 849 25.07 4.6 40.3 51 -4.6 23.8
10:35 1019 30.09 849 25.07 4.9 40.8 50 -4.6 23.7
10:40 1019 30.09 849 25.07 5.1 41.2 49 -4.8 23.3
10:45 1019 30.09 849 25.07 5.5 42 47 -4.9 23.1
10:50 1019 30.09 849 25.07 6.3 43.3 45 -4.9 23.2
10:55 1019 30.09 849 25.07 6.3 43.3 44 -5.1 22.9
11:00 1019 30.09 849 25.07 6.4 43.4 44 -5 22.9
11:05 1019 30.09 849 25.07 6.6 43.8 43 -5 23
11:10 1019 30.09 848 25.04 6.9 44.4 42 -5.2 22.6
11:15 1019 30.09 849 25.07 7.3 45.1 42 -4.9 23.1
11:20 1019 30.09 849 25.07 8.1 46.5 39 -5 23
11:25 1019 30.09 848 25.04 8.1 46.5 40 -4.7 23.5
11:30 1019 30.09 848 25.04 8.4 47.2 38 -4.9 23.1
11:35 1019 30.09 849 25.07 8.9 48 37 -5.1 22.9
11:40 1019 30.09 848 25.04 9 48.2 37 -4.7 23.5
11:45 1019 30.09 848 25.04 9.1 48.4 39 -4.2 24.4
11:50 1019 30.09 848 25.04 9.3 48.8 37 -4.7 23.6
11:55 1019 30.09 848 25.04 10.3 50.5 35 -4.5 23.9
12:00 1019 30.09 848 25.04 10.1 50.1 36 -4.3 24.3
12:05 1019 30.09 848 25.04 9.7 49.5 36 -4.6 23.7
12:10 1019 30.09 848 25.04 10.1 50.1 33 -5.3 22.5
12:15 1019 30.09 848 25.04 10.2 50.4 33 -5.4 22.3
12:20 1019 30.09 848 25.04 10.4 50.8 34 -4.9 23.1
12:25 1019 30.09 848 25.04 10.2 50.4 36 -4.3 24.2
12:30 1019 30.09 848 25.04 10.1 50.1 37 -4.1 24.6
12:35 1019 30.09 848 25.04 9.8 49.7 35 -4.9 23.1
12:40 1018 30.06 848 25.04 9.6 49.2 36 -4.9 23.2
12:45 1018 30.06 848 25.04 9.6 49.2 35 -5.2 22.7
12:50 1018 30.06 848 25.04 10 50 34 -4.9 23.2
12:55 1018 30.06 848 25.04 10.6 51.1 32 -5.2 22.6
13:00 1018 30.06 847 25.01 10.1 50.2 35 -4.7 23.6
13:05 1018 30.06 847 25.01 10.1 50.1 34 -4.9 23.1
13:10 1018 30.06 847 25.01 10.5 51 34 -4.8 23.4
13:15 1018 30.06 847 25.01 11.1 52.1 34 -4.2 24.4
13:20 1018 30.06 847 25.01 11.5 52.7 31 -4.8 23.3
13:25 1018 30.06 847 25.01 12.1 53.7 32 -4.2 24.4
13:30 1018 30.06 847 25.01 11.6 52.8 33 -4.1 24.5
13:35 1018 30.06 847 25.01 11.5 52.7 33 -4.3 24.2
13:40 1018 30.06 847 25.01 11.5 52.6 33 -4.3 24.2
13:45 1018 30.06 847 25.01 11.7 53.1 33 -3.8 25.1
13:50 1018 30.06 847 25.01 11.7 53 33 -3.9 24.9
13:55 1018 30.06 847 25.01 11.1 51.9 36 -3.3 26.1
14:00 1018 30.06 847 25.01 10 49.9 39 -3.3 26.1
14:05 1018 30.06 847 25.01 9.4 48.9 39 -3.7 25.3
14:10 1018 30.06 847 25.01 9.4 48.9 41 -3.2 26.2
14:15 1018 30.06 847 25.01 9.7 49.4 40 -3.4 25.9
14:20 1018 30.06 847 25.01 9.7 49.4 40 -3.3 26
14:25 1018 30.06 847 25.01 9.5 49.1 40 -3.3 26.1
14:30 1018 30.06 847 25.01 9.6 49.3 39 -3.5 25.7
14:35 1018 30.06 847 25.01 9.9 49.8 40 -3.1 26.5
14:40 1018 30.06 847 25.01 10.1 50.1 40 -2.9 26.8
14:45 1017 30.03 847 25.01 10.2 50.4 41 -2.4 27.6
14:50 1017 30.03 847 25.01 10.3 50.5 38 -3.5 25.8
14:55 1018 30.06 847 25.01 11 51.9 36 -3.4 25.8
15:00 1018 30.06 847 25.01 11.9 53.4 35 -3 26.5
15:05 1018 30.06 847 25.01 11.9 53.5 36 -2.6 27.4
15:10 1018 30.06 847 25.01 11.8 53.3 35 -2.9 26.7
15:15 1018 30.06 847 25.01 12.3 54.2 36 -2.4 27.7
15:20 1018 30.06 847 25.01 12.3 54.2 37 -1.7 28.9
15:25 1018 30.06 847 25.01 12.3 54.1 38 -1.6 29.1
15:30 1018 30.06 847 25.01 12.1 53.8 38 -1.7 28.9
15:35 1017 30.03 847 25.01 11.8 53.2 39 -1.7 29
15:40 1017 30.03 847 25.01 11.7 53.1 38 -1.9 28.5
15:45 1017 30.03 847 25.01 11.7 53 38 -2 28.4
15:50 1017 30.03 847 25.01 11.8 53.2 38 -1.9 28.6
15:55 1017 30.03 847 25.01 11.8 53.2 39 -1.6 29.1
16:00 1017 30.03 846 24.98 11.7 53.1 38 -2 28.5
16:05 1017 30.03 846 24.98 11.6 52.9 38 -2.2 28
16:10 1017 30.03 846 24.98 11.5 52.7 38 -2.2 28.1
16:15 1017 30.03 846 24.98 11.2 52.2 39 -2.3 27.9
16:20 1017 30.03 846 24.98 11.2 52.2 39 -2.3 27.9
16:25 1017 30.03 846 24.98 11.2 52.2 40 -2 28.4
16:30 1017 30.03 846 24.98 11.2 52.1 39 -2.1 28.3
16:35 1017 30.03 846 24.98 11.2 52.2 39 -2 28.3
16:40 1017 30.03 846 24.98 11.5 52.6 39 -1.9 28.6
16:45 1017 30.03 846 24.98 11.5 52.7 40 -1.6 29.2
16:50 1017 30.03 846 24.98 11.3 52.3 40 -1.7 28.9
16:55 1017 30.03 846 24.98 11 51.8 41 -1.8 28.8
17:00 1017 30.03 846 24.98 10.8 51.4 41 -2 28.4
17:05 1017 30.03 846 24.98 10.9 51.5 40 -2 28.3
17:10 1017 30.03 846 24.98 11 51.8 40 -2.1 28.1
17:15 1017 30.03 846 24.98 10.9 51.7 39 -2.5 27.6
17:20 1017 30.03 846 24.98 10.9 51.6 39 -2.4 27.7
17:25 1017 30.03 846 24.98 10.7 51.3 39 -2.5 27.5
17:30 1017 30.03 846 24.98 10.6 51.1 40 -2.3 27.9
17:35 1017 30.03 846 24.98 10.4 50.8 41 -2.3 27.9
17:40 1017 30.03 846 24.98 10.2 50.4 41 -2.2 28
17:45 1017 30.03 846 24.98 10.1 50.1 42 -2.3 27.8
17:50 1017 30.03 846 24.98 9.8 49.7 44 -1.9 28.5
17:55 1017 30.03 846 24.98 9.4 48.9 45 -1.8 28.8
18:00 1017 30.03 846 24.98 8.9 48 48 -1.5 29.3
18:05 1017 30.03 846 24.98 8.5 47.3 49 -1.6 29.2
18:10 1017 30.03 846 24.98 8.2 46.8 49 -1.8 28.8
18:15 1017 30.03 846 24.98 8 46.5 47 -2.5 27.5
18:20 1017 30.03 846 24.98 8.3 46.9 47 -2.5 27.5
18:25 1017 30.03 846 24.98 8.5 47.3 45 -2.9 26.8
18:30 1017 30.03 846 24.98 8.7 47.7 46 -2.1 28.2
18:35 1017 30.03 846 24.98 8.4 47 48 -2 28.3
18:40 1017 30.03 846 24.98 8.1 46.6 47 -2.4 27.7
18:45 1017 30.03 846 24.98 8.2 46.8 46 -2.6 27.3
18:50 1017 30.03 846 24.98 8.4 47.1 47 -2.4 27.7
18:55 1017 30.03 846 24.98 8.3 46.9 47 -2.4 27.6
19:00 1017 30.03 846 24.98 8.1 46.6 47 -2.6 27.4
19:05 1017 30.03 846 24.98 8.1 46.6 48 -2.3 27.8
19:10 1017 30.03 846 24.98 8.1 46.6 45 -3 26.5
19:15 1017 30.03 846 24.98 8.5 47.2 45 -2.8 26.9
19:20 1017 30.03 846 24.98 8.4 47.1 45 -2.7 27.1
19:25 1017 30.03 846 24.98 8.2 46.8 46 -2.7 27.1
19:30 1017 30.03 846 24.98 8.1 46.5 46 -2.9 26.8
19:35 1017 30.03 846 24.98 8 46.4 46 -3 26.7
19:40 1017 30.03 846 24.98 8 46.5 46 -2.8 27
19:45 1017 30.03 846 24.98 7.8 46.1 48 -2.6 27.4
19:50 1017 30.03 846 24.98 7.5 45.5 49 -2.6 27.4
19:55 1017 30.03 846 24.98 7.3 45.1 50 -2.4 27.7
20:00 1017 30.03 846 24.98 6.9 44.5 52 -2.2 28
20:05 1017 30.03 847 25.01 6.6 43.9 52 -2.4 27.6
20:10 1017 30.03 846 24.98 6.6 43.9 51 -2.7 27.2
20:15 1017 30.03 846 24.98 6.9 44.4 50 -2.8 26.9
20:20 1017 30.03 846 24.98 7.1 44.9 49 -2.8 26.9
20:25 1017 30.03 846 24.98 7.3 45.2 48 -2.8 26.9
20:30 1017 30.03 846 24.98 7.4 45.2 47 -3.2 26.3
20:35 1017 30.03 846 24.98 7.7 45.8 47 -3 26.5
20:40 1017 30.03 846 24.98 7.7 45.9 46 -3.2 26.2
20:45 1017 30.03 846 24.98 7.8 46.1 46 -2.9 26.7
20:50 1017 30.03 846 24.98 7.6 45.7 47 -2.9 26.7
20:55 1017 30.03 846 24.98 7.2 45 49 -2.7 27.2
21:00 1017 30.03 846 24.98 6.9 44.4 50 -2.7 27.1
21:05 1017 30.03 846 24.98 6.7 44.1 51 -2.8 27
21:10 1017 30.03 846 24.98 6.8 44.2 51 -2.7 27.1
21:15 1017 30.03 846 24.98 6.7 44.1 51 -2.6 27.3
21:20 1017 30.03 846 24.98 6.7 44.1 51 -2.6 27.4
21:25 1017 30.03 846 24.98 6.8 44.3 49 -3.1 26.3
21:30 1017 30.03 846 24.98 7.5 45.4 46 -3.3 26.1
21:35 1017 30.03 846 24.98 8.2 46.8 43 -3.6 25.6
21:40 1017 30.03 846 24.98 8.5 47.4 44 -3 26.5
21:45 1017 30.03 846 24.98 8.2 46.7 45 -3 26.7
21:50 1017 30.03 846 24.98 7.9 46.3 47 -2.8 27
21:55 1017 30.03 846 24.98 8 46.5 45 -3.3 26.1
22:00 1017 30.03 846 24.98 8.3 46.9 45 -3 26.6
22:05 1017 30.03 846 24.98 8.2 46.8 45 -3.1 26.4
22:10 1017 30.03 846 24.98 8.2 46.7 45 -3 26.6
22:15 1017 30.03 846 24.98 8 46.4 44 -3.4 25.9
22:20 1017 30.03 846 24.98 8.3 47 44 -3.2 26.2
22:25 1017 30.03 846 24.98 8.1 46.5 46 -2.9 26.8
22:30 1017 30.03 846 24.98 7.8 46.1 45 -3.2 26.2
22:35 1017 30.03 846 24.98 8 46.3 45 -3.1 26.4
22:40 1017 30.03 846 24.98 8 46.4 45 -3.2 26.2
22:45 1017 30.03 846 24.98 8 46.3 45 -3.2 26.3
22:50 1017 30.03 846 24.98 7.7 45.8 46 -3.1 26.4
22:55 1017 30.03 846 24.98 7.4 45.3 48 -3 26.7
23:00 1017 30.03 846 24.98 7 44.6 49 -2.9 26.8
23:05 1017 30.03 846 24.98 7.2 44.9 46 -3.6 25.6
23:10 1017 30.03 846 24.98 7.8 46.1 43 -4 24.9
23:15 1017 30.03 846 24.98 8.4 47.1 42 -3.7 25.3
23:20 1017 30.03 846 24.98 8.4 47 43 -3.6 25.5
23:25 1017 30.03 846 24.98 8.1 46.6 44 -3.4 25.8
23:30 1017 30.03 846 24.98 7.9 46.1 44 -3.5 25.7
23:35 1017 30.03 846 24.98 7.8 46.1 44 -3.6 25.5
23:40 1017 30.03 846 24.98 7.7 45.8 45 -3.4 25.9
23:45 1017 30.03 846 24.98 7.2 45 47 -3.4 25.9
23:50 1017 30.03 846 24.98 7 44.6 47 -3.5 25.7
23:55 1017 30.03 846 24.98 7.1 44.7 47 -3.5 25.8
24:00 1017 30.03 846 24.98 7.1 44.8 46 -3.7 25.3